Time;durP1;ratioP1;P1;durP2;ratioP2;P2;SDS_P1;SDS_P2;PMS_P1;PMS_P2;Temp;Humidity;BMP_temperature;BMP_pressure;BME280_temperature;BME280_humidity;BME280_pressure;Samples;Min_cycle;Max_cycle;Signal;HPM_P1;HPM_P2
2022/09/27 00:01:00;;;;;;;2.80;1.53;;;;;;;;;;5012945;28;20452;-79
2022/09/27 00:03:27;;;;;;;1.20;1.10;;;;;;;;;;5012511;28;20627;-80
2022/09/27 00:06:04;;;;;;;1.43;1.33;;;;;;;;;;5012351;28;20439;-78
2022/09/27 00:08:31;;;;;;;1.63;1.50;;;;;;;;;;5006794;28;20904;-79
2022/09/27 00:10:59;;;;;;;1.70;1.70;;;;;;;;;;4994971;28;20444;-80
2022/09/27 00:13:26;;;;;;;2.03;1.50;;;;;;;;;;4991106;28;20444;-79
2022/09/27 00:15:56;;;;;;;1.43;1.30;;;;;;;;;;4990022;28;20485;-78
2022/09/27 00:18:24;;;;;;;1.40;1.37;;;;;;;;;;4990261;28;20489;-79
2022/09/27 00:20:51;;;;;;;1.30;1.30;;;;;;;;;;4989599;28;20448;-78
2022/09/27 00:23:18;;;;;;;1.57;1.47;;;;;;;;;;4990123;28;20829;-80
2022/09/27 00:25:55;;;;;;;1.97;1.43;;;;;;;;;;4990676;28;20441;-79
2022/09/27 00:28:22;;;;;;;1.00;1.00;;;;;;;;;;4990460;28;20428;-78
2022/09/27 00:30:49;;;;;;;1.50;1.40;;;;;;;;;;4991695;28;20460;-79
2022/09/27 00:33:16;;;;;;;1.10;1.10;;;;;;;;;;4992315;28;20490;-77
2022/09/27 00:35:44;;;;;;;2.00;1.20;;;;;;;;;;4990985;28;20484;-78
2022/09/27 00:38:12;;;;;;;1.40;1.30;;;;;;;;;;4991477;28;20460;-77
2022/09/27 00:40:39;;;;;;;1.00;1.00;;;;;;;;;;4991059;28;20444;-79
2022/09/27 00:43:14;;;;;;;1.20;1.10;;;;;;;;;;4991366;28;20505;-78
2022/09/27 00:45:41;;;;;;;1.10;1.10;;;;;;;;;;4992238;28;20872;-78
2022/09/27 00:48:08;;;;;;;1.10;1.10;;;;;;;;;;4992531;28;20944;-79
2022/09/27 00:50:37;;;;;;;0.90;0.90;;;;;;;;;;4990937;28;20613;-78
2022/09/27 00:53:12;;;;;;;2.33;1.20;;;;;;;;;;4992336;28;20947;-78
2022/09/27 00:55:41;;;;;;;1.10;1.00;;;;;;;;;;4992918;28;20861;-79
2022/09/27 00:58:08;;;;;;;1.10;1.00;;;;;;;;;;4990426;28;20502;-79
2022/09/27 01:00:37;;;;;;;1.10;1.10;;;;;;;;;;4990010;28;20536;-79
2022/09/27 01:03:06;;;;;;;1.53;1.27;;;;;;;;;;4990919;28;20452;-79
2022/09/27 01:05:33;;;;;;;1.10;1.10;;;;;;;;;;4990913;28;20444;-78
2022/09/27 01:08:00;;;;;;;1.40;1.30;;;;;;;;;;4990112;28;20452;-80
2022/09/27 01:10:32;;;;;;;1.03;1.03;;;;;;;;;;4990611;28;20521;-81
2022/09/27 01:13:02;;;;;;;1.20;1.20;;;;;;;;;;4994672;28;20441;-78
2022/09/27 01:15:35;;;;;;;0.90;0.90;;;;;;;;;;4994642;28;20476;-79
2022/09/27 01:18:09;;;;;;;1.33;1.17;;;;;;;;;;4993551;28;20848;-78
2022/09/27 01:20:54;;;;;;;0.97;0.90;;;;;;;;;;4993442;28;20439;-80
2022/09/27 01:23:30;;;;;;;1.30;1.30;;;;;;;;;;4993603;28;20436;-78
2022/09/27 01:26:10;;;;;;;0.90;0.90;;;;;;;;;;4993863;28;20493;-79
2022/09/27 01:28:43;;;;;;;2.77;1.30;;;;;;;;;;4993048;28;20530;-78
2022/09/27 01:31:14;;;;;;;1.00;1.00;;;;;;;;;;4993542;28;20436;-78
2022/09/27 01:33:46;;;;;;;0.87;0.87;;;;;;;;;;4993299;28;20464;-77
2022/09/27 01:36:21;;;;;;;0.87;0.87;;;;;;;;;;4993154;28;20471;-78
2022/09/27 01:38:56;;;;;;;0.80;0.80;;;;;;;;;;4993853;28;21003;-80
2022/09/27 01:41:26;;;;;;;1.00;1.00;;;;;;;;;;4993576;28;20444;-78
2022/09/27 01:43:56;;;;;;;1.73;1.20;;;;;;;;;;4993684;28;20486;-78
2022/09/27 01:46:27;;;;;;;1.37;0.83;;;;;;;;;;4993047;28;20812;-78
2022/09/27 01:48:55;;;;;;;1.03;1.03;;;;;;;;;;4992763;28;20455;-77
2022/09/27 01:51:24;;;;;;;1.07;1.07;;;;;;;;;;4992798;28;20946;-78
2022/09/27 01:53:52;;;;;;;1.90;1.20;;;;;;;;;;5002186;28;20455;-79
2022/09/27 01:56:19;;;;;;;1.63;1.20;;;;;;;;;;5004291;28;20492;-78
2022/09/27 01:58:51;;;;;;;1.00;1.00;;;;;;;;;;5000183;28;20471;-78
2022/09/27 02:01:19;;;;;;;1.20;1.10;;;;;;;;;;4999221;28;20755;-78
2022/09/27 02:03:49;;;;;;;1.70;0.90;;;;;;;;;;5000321;28;20451;-78
2022/09/27 02:06:19;;;;;;;4.80;1.03;;;;;;;;;;4994227;28;20440;-78
2022/09/27 02:08:47;;;;;;;0.93;0.93;;;;;;;;;;4992727;28;20886;-78
2022/09/27 02:11:17;;;;;;;1.00;1.00;;;;;;;;;;4992871;28;20455;-78
2022/09/27 02:13:47;;;;;;;0.97;0.97;;;;;;;;;;4992770;28;20498;-78
2022/09/27 02:16:19;;;;;;;2.30;1.00;;;;;;;;;;4992578;28;20543;-78
2022/09/27 02:18:51;;;;;;;3.10;1.20;;;;;;;;;;4993783;28;20471;-79
2022/09/27 02:21:19;;;;;;;1.13;1.07;;;;;;;;;;4996089;28;20425;-79
2022/09/27 02:23:48;;;;;;;1.17;1.17;;;;;;;;;;4996717;28;20499;-79
2022/09/27 02:26:18;;;;;;;1.53;0.73;;;;;;;;;;4996685;28;20448;-79
2022/09/27 02:28:48;;;;;;;1.27;1.17;;;;;;;;;;4996220;28;20518;-79
2022/09/27 02:31:15;;;;;;;0.87;0.87;;;;;;;;;;4996320;28;20894;-79
2022/09/27 02:33:44;;;;;;;1.30;1.20;;;;;;;;;;4996394;28;20482;-78
2022/09/27 02:36:14;;;;;;;0.90;0.90;;;;;;;;;;4996253;28;20476;-78
2022/09/27 02:38:41;;;;;;;0.83;0.83;;;;;;;;;;4995965;28;20475;-76
2022/09/27 02:41:13;;;;;;;0.90;0.90;;;;;;;;;;4995590;28;20436;-78
2022/09/27 02:43:40;;;;;;;0.80;0.80;;;;;;;;;;4995911;28;20432;-77
2022/09/27 02:46:15;;;;;;;0.93;0.50;;;;;;;;;;4995993;28;20809;-79
2022/09/27 02:48:46;;;;;;;3.00;0.90;;;;;;;;;;4996903;28;20471;-79
2022/09/27 02:51:18;;;;;;;0.77;0.77;;;;;;;;;;4995499;28;20897;-77
2022/09/27 02:53:54;;;;;;;1.57;0.80;;;;;;;;;;4995515;28;20435;-79
2022/09/27 02:56:25;;;;;;;0.80;0.70;;;;;;;;;;4995055;28;20519;-78
2022/09/27 02:58:59;;;;;;;2.13;0.90;;;;;;;;;;4995974;28;21003;-79
2022/09/27 03:01:28;;;;;;;0.73;0.70;;;;;;;;;;4995756;28;20486;-78
2022/09/27 03:03:58;;;;;;;1.17;0.97;;;;;;;;;;4995786;28;20444;-78
2022/09/27 03:06:28;;;;;;;1.10;1.10;;;;;;;;;;4995038;28;20445;-79
2022/09/27 03:08:56;;;;;;;1.40;0.90;;;;;;;;;;4995904;28;20470;-78
2022/09/27 03:11:23;;;;;;;0.80;0.80;;;;;;;;;;4995482;28;20625;-79
2022/09/27 03:13:50;;;;;;;1.20;0.77;;;;;;;;;;4995667;28;20447;-78
2022/09/27 03:16:18;;;;;;;2.30;1.10;;;;;;;;;;4995584;28;20479;-78
2022/09/27 03:18:45;;;;;;;2.40;1.37;;;;;;;;;;4995392;28;20527;-79
2022/09/27 03:21:12;;;;;;;2.60;1.20;;;;;;;;;;4994979;28;20452;-78
2022/09/27 03:23:40;;;;;;;0.90;0.90;;;;;;;;;;4995251;28;20436;-77
2022/09/27 03:26:07;;;;;;;3.03;1.10;;;;;;;;;;4994820;28;20886;-78
2022/09/27 03:28:34;;;;;;;1.20;1.10;;;;;;;;;;4994936;28;20486;-78
2022/09/27 03:31:01;;;;;;;0.90;0.90;;;;;;;;;;4995675;28;20451;-79
2022/09/27 03:33:28;;;;;;;1.53;0.90;;;;;;;;;;4996804;28;20448;-79
2022/09/27 03:35:55;;;;;;;3.23;1.10;;;;;;;;;;4996415;28;20531;-78
2022/09/27 03:38:22;;;;;;;2.33;1.07;;;;;;;;;;4994967;28;20621;-78
2022/09/27 03:40:51;;;;;;;0.93;0.93;;;;;;;;;;4995297;28;20454;-78
2022/09/27 03:43:18;;;;;;;1.93;1.23;;;;;;;;;;4997268;28;20523;-78
2022/09/27 03:45:46;;;;;;;1.80;1.47;;;;;;;;;;4997995;28;20444;-79
2022/09/27 03:48:13;;;;;;;1.80;1.13;;;;;;;;;;4999131;28;20467;-77
2022/09/27 03:50:40;;;;;;;1.33;1.23;;;;;;;;;;5000795;28;20447;-77
2022/09/27 03:53:07;;;;;;;1.60;1.23;;;;;;;;;;5001837;28;20448;-78
2022/09/27 03:55:34;;;;;;;1.20;1.20;;;;;;;;;;5000506;28;20489;-78
2022/09/27 03:58:02;;;;;;;5.93;4.73;;;;;;;;;;4996431;28;20488;-78
2022/09/27 04:00:31;;;;;;;3.40;3.00;;;;;;;;;;4995149;28;20472;-80
2022/09/27 04:02:58;;;;;;;1.47;1.20;;;;;;;;;;4995258;28;20454;-79
2022/09/27 04:05:26;;;;;;;2.10;1.20;;;;;;;;;;4994478;28;20436;-78
2022/09/27 04:07:53;;;;;;;3.20;1.33;;;;;;;;;;4994667;28;20949;-79
2022/09/27 04:10:20;;;;;;;2.50;1.60;;;;;;;;;;4993976;28;20839;-78
2022/09/27 04:12:48;;;;;;;1.57;1.47;;;;;;;;;;4994446;28;20444;-78
2022/09/27 04:15:16;;;;;;;3.37;2.07;;;;;;;;;;4994289;28;20448;-79
2022/09/27 04:17:43;;;;;;;1.93;1.50;;;;;;;;;;4994274;28;20452;-78
2022/09/27 04:20:11;;;;;;;2.87;1.60;;;;;;;;;;4993988;28;20460;-79
2022/09/27 04:22:40;;;;;;;1.70;1.50;;;;;;;;;;4993906;28;20451;-78
2022/09/27 04:25:07;;;;;;;2.07;1.60;;;;;;;;;;4993467;28;20486;-78
2022/09/27 04:27:34;;;;;;;2.23;1.80;;;;;;;;;;4996315;28;20937;-78
2022/09/27 04:33:07;;;;;;;3.50;2.30;;;;;;;;;;4994362;28;20451;-80
2022/09/27 04:38:22;;;;;;;2.07;1.97;;;;;;;;;;4993622;28;20532;-79
2022/09/27 04:40:50;;;;;;;2.90;1.90;;;;;;;;;;4993156;28;20502;-78
2022/09/27 04:43:17;;;;;;;4.03;2.30;;;;;;;;;;4993591;28;20925;-79
2022/09/27 04:45:44;;;;;;;6.07;2.50;;;;;;;;;;4993596;28;20835;-79
2022/09/27 04:48:12;;;;;;;5.23;2.37;;;;;;;;;;4993573;28;20819;-78
2022/09/27 04:50:40;;;;;;;3.60;1.80;;;;;;;;;;4993259;28;20448;-78
2022/09/27 04:53:07;;;;;;;2.17;2.03;;;;;;;;;;4993352;28;20546;-80
2022/09/27 04:55:35;;;;;;;2.27;2.00;;;;;;;;;;4993402;28;20470;-78
2022/09/27 04:58:02;;;;;;;2.37;2.10;;;;;;;;;;4994430;28;20454;-78
2022/09/27 05:00:29;;;;;;;2.73;2.50;;;;;;;;;;4993358;28;20853;-78
2022/09/27 05:02:56;;;;;;;4.57;2.40;;;;;;;;;;4992965;28;20912;-78
2022/09/27 05:05:24;;;;;;;4.60;2.67;;;;;;;;;;4993510;28;20452;-79
2022/09/27 05:07:51;;;;;;;5.60;2.67;;;;;;;;;;4992907;28;20869;-79
2022/09/27 05:10:18;;;;;;;2.93;2.40;;;;;;;;;;4993221;28;20452;-77
2022/09/27 05:12:45;;;;;;;3.10;2.17;;;;;;;;;;4993293;28;20448;-78
2022/09/27 05:15:12;;;;;;;3.20;2.03;;;;;;;;;;4993185;28;20945;-80
2022/09/27 05:17:39;;;;;;;4.10;2.43;;;;;;;;;;4993708;28;20640;-78
2022/09/27 05:20:08;;;;;;;3.20;2.23;;;;;;;;;;4991177;28;20468;-78
2022/09/27 05:22:37;;;;;;;5.83;2.77;;;;;;;;;;4991233;28;20498;-79
2022/09/27 05:25:04;;;;;;;2.13;1.93;;;;;;;;;;4991330;28;20540;-78
2022/09/27 05:27:31;;;;;;;4.63;2.50;;;;;;;;;;4990697;28;20459;-79
2022/09/27 05:30:00;;;;;;;4.90;2.30;;;;;;;;;;4991021;28;20471;-79
2022/09/27 05:32:28;;;;;;;2.53;2.33;;;;;;;;;;4990957;28;20547;-78
2022/09/27 05:34:55;;;;;;;2.80;2.30;;;;;;;;;;4990862;28;20559;-79
2022/09/27 05:37:22;;;;;;;2.63;2.43;;;;;;;;;;4991287;28;20479;-77
2022/09/27 05:39:50;;;;;;;2.50;2.20;;;;;;;;;;4990789;28;20476;-78
2022/09/27 05:42:18;;;;;;;2.00;1.70;;;;;;;;;;4990554;28;20612;-79
2022/09/27 05:44:46;;;;;;;4.43;1.90;;;;;;;;;;4990662;28;20959;-79
2022/09/27 05:47:14;;;;;;;1.97;1.80;;;;;;;;;;4990885;28;20459;-78
2022/09/27 05:49:41;;;;;;;3.33;2.00;;;;;;;;;;4991318;28;20477;-78
2022/09/27 05:52:08;;;;;;;3.90;2.10;;;;;;;;;;4991048;28;20447;-78
2022/09/27 05:54:35;;;;;;;2.67;1.70;;;;;;;;;;4991121;28;20532;-78
2022/09/27 05:57:07;;;;;;;2.13;1.90;;;;;;;;;;4991909;28;20468;-78
2022/09/27 05:59:34;;;;;;;2.13;1.73;;;;;;;;;;4994787;28;20579;-78
2022/09/27 06:02:01;;;;;;;2.50;1.70;;;;;;;;;;4994249;28;20974;-78
2022/09/27 06:04:28;;;;;;;6.13;2.03;;;;;;;;;;4994216;28;20467;-79
2022/09/27 06:06:57;;;;;;;2.83;2.63;;;;;;;;;;4994654;28;20451;-81
2022/09/27 06:09:25;;;;;;;3.07;1.70;;;;;;;;;;4993954;28;20991;-79
2022/09/27 06:11:52;;;;;;;1.43;1.33;;;;;;;;;;4994421;28;20550;-78
2022/09/27 06:14:21;;;;;;;4.47;1.63;;;;;;;;;;4994907;28;20459;-78
2022/09/27 06:16:48;;;;;;;1.70;1.57;;;;;;;;;;4994138;28;20896;-77
2022/09/27 06:19:15;;;;;;;1.70;1.60;;;;;;;;;;4993623;28;20467;-79
2022/09/27 06:21:42;;;;;;;1.73;1.50;;;;;;;;;;4994098;28;20452;-79
2022/09/27 06:24:09;;;;;;;1.93;1.80;;;;;;;;;;4993441;28;20975;-78
2022/09/27 06:26:36;;;;;;;1.57;1.47;;;;;;;;;;4993993;28;20436;-79
2022/09/27 06:29:03;;;;;;;1.40;1.40;;;;;;;;;;4994521;28;20468;-80
2022/09/27 06:31:32;;;;;;;1.70;1.60;;;;;;;;;;4994261;28;20482;-78
2022/09/27 06:33:59;;;;;;;2.13;1.50;;;;;;;;;;4995784;28;20456;-79
2022/09/27 06:36:26;;;;;;;1.60;1.37;;;;;;;;;;4994857;28;20484;-79
2022/09/27 06:38:53;;;;;;;2.10;1.73;;;;;;;;;;4994003;28;20480;-80
2022/09/27 06:41:20;;;;;;;1.80;1.30;;;;;;;;;;4994034;28;20858;-79
2022/09/27 06:43:48;;;;;;;1.43;1.30;;;;;;;;;;4994721;28;20451;-78
2022/09/27 06:46:16;;;;;;;1.67;1.50;;;;;;;;;;4993732;28;20927;-78
2022/09/27 06:48:44;;;;;;;1.63;1.50;;;;;;;;;;4993466;28;20483;-78
2022/09/27 06:51:11;;;;;;;1.30;1.20;;;;;;;;;;4994407;28;20479;-79
2022/09/27 06:53:38;;;;;;;1.00;1.00;;;;;;;;;;4993901;28;20796;-78
2022/09/27 06:56:05;;;;;;;2.40;1.03;;;;;;;;;;4996450;28;20822;-78
2022/09/27 07:01:17;;;;;;;0.90;0.90;;;;;;;;;;4993599;28;20475;-78
2022/09/27 07:03:49;;;;;;;1.20;1.20;;;;;;;;;;4993489;28;20543;-78
2022/09/27 07:06:18;;;;;;;1.10;1.10;;;;;;;;;;4993796;28;20482;-78
2022/09/27 07:08:45;;;;;;;1.60;1.40;;;;;;;;;;4992579;28;20476;-80
2022/09/27 07:11:14;;;;;;;0.90;0.90;;;;;;;;;;4993642;28;20570;-79
2022/09/27 07:13:42;;;;;;;0.80;0.80;;;;;;;;;;4993866;28;20506;-79
2022/09/27 07:16:11;;;;;;;1.20;1.07;;;;;;;;;;4993378;28;20455;-78
2022/09/27 07:18:39;;;;;;;0.97;0.97;;;;;;;;;;4993899;28;20468;-78
2022/09/27 07:21:08;;;;;;;0.90;0.90;;;;;;;;;;4993334;28;20486;-77
2022/09/27 07:23:35;;;;;;;0.60;0.60;;;;;;;;;;4993373;28;20452;-78
2022/09/27 07:26:05;;;;;;;1.07;1.03;;;;;;;;;;4992598;28;20463;-79
2022/09/27 07:28:33;;;;;;;1.10;1.10;;;;;;;;;;4993056;28;20468;-79
2022/09/27 07:31:01;;;;;;;0.90;0.90;;;;;;;;;;4992588;28;20443;-78
2022/09/27 07:33:28;;;;;;;1.13;1.00;;;;;;;;;;4993097;28;20452;-78
2022/09/27 07:35:55;;;;;;;1.03;0.77;;;;;;;;;;4993072;28;20867;-78
2022/09/27 07:38:23;;;;;;;0.90;0.70;;;;;;;;;;4992384;28;20499;-79
2022/09/27 07:40:50;;;;;;;0.90;0.90;;;;;;;;;;4992763;28;20860;-77
2022/09/27 07:43:18;;;;;;;0.80;0.80;;;;;;;;;;4992888;28;20455;-78
2022/09/27 07:45:45;;;;;;;1.03;0.90;;;;;;;;;;4993181;28;20468;-79
2022/09/27 07:48:14;;;;;;;1.03;0.90;;;;;;;;;;4992769;28;21034;-80
2022/09/27 07:50:41;;;;;;;1.20;1.20;;;;;;;;;;4992825;28;20511;-78
2022/09/27 07:53:11;;;;;;;4.00;1.07;;;;;;;;;;4991978;28;20972;-79
2022/09/27 07:55:41;;;;;;;1.10;1.10;;;;;;;;;;4992153;28;20487;-79
2022/09/27 07:58:09;;;;;;;3.70;0.90;;;;;;;;;;4992599;28;20483;-77
2022/09/27 08:00:40;;;;;;;2.30;0.90;;;;;;;;;;4992376;28;20864;-78
2022/09/27 08:03:09;;;;;;;0.87;0.87;;;;;;;;;;4991969;28;20928;-78
2022/09/27 08:05:37;;;;;;;3.00;1.30;;;;;;;;;;4992132;28;20464;-77
2022/09/27 08:08:04;;;;;;;1.90;1.10;;;;;;;;;;4992864;28;20479;-79
2022/09/27 08:10:32;;;;;;;1.33;1.10;;;;;;;;;;4992535;28;21006;-77
2022/09/27 08:13:01;;;;;;;1.10;1.10;;;;;;;;;;4992763;28;20483;-78
2022/09/27 08:15:29;;;;;;;1.30;1.30;;;;;;;;;;4993318;28;21031;-79
2022/09/27 08:17:56;;;;;;;1.70;1.40;;;;;;;;;;4993135;28;20480;-78
2022/09/27 08:20:24;;;;;;;1.27;1.17;;;;;;;;;;4992407;28;20551;-79
2022/09/27 08:22:51;;;;;;;1.60;1.33;;;;;;;;;;4992665;28;20440;-78
2022/09/27 08:25:18;;;;;;;1.30;1.30;;;;;;;;;;4992451;28;21026;-79
2022/09/27 08:27:45;;;;;;;1.73;1.20;;;;;;;;;;4993108;28;20523;-80
2022/09/27 08:30:13;;;;;;;1.10;1.10;;;;;;;;;;4993236;28;20474;-78
2022/09/27 08:32:40;;;;;;;1.20;1.20;;;;;;;;;;4994068;28;20479;-80
2022/09/27 08:35:08;;;;;;;1.50;1.00;;;;;;;;;;4993955;28;20445;-80
2022/09/27 08:37:35;;;;;;;1.13;1.00;;;;;;;;;;4993805;28;20540;-79
2022/09/27 08:40:02;;;;;;;1.70;1.00;;;;;;;;;;4993556;28;20476;-79
2022/09/27 08:42:34;;;;;;;0.90;0.90;;;;;;;;;;4993082;28;20455;-79
2022/09/27 08:45:04;;;;;;;0.90;0.90;;;;;;;;;;4992753;28;20506;-79
2022/09/27 08:47:35;;;;;;;1.60;1.10;;;;;;;;;;4994087;28;20468;-80
2022/09/27 08:50:04;;;;;;;0.80;0.80;;;;;;;;;;4993106;28;20472;-79
2022/09/27 08:52:33;;;;;;;1.27;1.10;;;;;;;;;;4993751;28;20877;-79
2022/09/27 08:55:03;;;;;;;2.00;1.00;;;;;;;;;;4993484;28;20459;-80
2022/09/27 08:57:30;;;;;;;1.20;1.10;;;;;;;;;;4992287;28;20843;-79
2022/09/27 09:00:28;;;;;;;1.23;1.07;;;;;;;;;;4996787;28;20507;-80
2022/09/27 09:02:57;;;;;;;2.03;1.30;;;;;;;;;;4977292;28;20518;-77
2022/09/27 09:05:28;;;;;;;1.63;1.00;;;;;;;;;;4997833;28;20479;-80
2022/09/27 09:08:13;;;;;;;2.07;1.13;;;;;;;;;;5014689;28;20432;-80
2022/09/27 09:13:38;;;;;;;2.20;1.30;;;;;;;;;;5015144;28;20411;-79
2022/09/27 09:16:09;;;;;;;1.10;1.10;;;;;;;;;;5007353;28;20420;-79
2022/09/27 09:18:48;;;;;;;1.80;1.30;;;;;;;;;;4995670;28;20507;-78
2022/09/27 09:21:22;;;;;;;1.73;1.63;;;;;;;;;;4994035;28;20437;-78
2022/09/27 09:24:04;;;;;;;0.83;0.83;;;;;;;;;;4994576;28;20432;-79
2022/09/27 09:26:39;;;;;;;1.57;1.20;;;;;;;;;;4995617;28;20436;-80
2022/09/27 09:29:15;;;;;;;0.97;0.97;;;;;;;;;;4993798;28;20885;-78
2022/09/27 09:31:44;;;;;;;2.13;1.30;;;;;;;;;;4993861;28;20450;-79
2022/09/27 09:34:16;;;;;;;2.00;1.90;;;;;;;;;;4997576;28;20444;-78
2022/09/27 09:36:45;;;;;;;1.00;1.00;;;;;;;;;;5003810;28;20494;-79
2022/09/27 09:39:32;;;;;;;1.20;1.20;;;;;;;;;;5008211;28;20939;-80
2022/09/27 09:42:05;;;;;;;1.17;1.07;;;;;;;;;;4998171;28;20441;-80
2022/09/27 09:44:35;;;;;;;1.40;1.30;;;;;;;;;;4996829;28;20479;-80
2022/09/27 09:47:03;;;;;;;1.27;1.27;;;;;;;;;;4997110;28;20476;-80
2022/09/27 09:49:34;;;;;;;1.40;1.37;;;;;;;;;;4996470;28;20467;-80
2022/09/27 09:52:03;;;;;;;1.47;1.37;;;;;;;;;;4993812;28;20441;-80
2022/09/27 09:54:33;;;;;;;1.43;1.33;;;;;;;;;;5000054;28;20479;-80
2022/09/27 09:57:04;;;;;;;1.40;1.30;;;;;;;;;;4978721;28;20488;-79
2022/09/27 09:59:35;;;;;;;3.07;1.50;;;;;;;;;;5011405;28;20448;-78
2022/09/27 10:02:11;;;;;;;1.60;1.50;;;;;;;;;;5008603;28;20428;-80
2022/09/27 10:04:39;;;;;;;1.40;1.30;;;;;;;;;;4997650;28;20443;-80
2022/09/27 10:07:06;;;;;;;1.70;1.60;;;;;;;;;;4997965;28;20815;-79
2022/09/27 10:09:35;;;;;;;2.43;1.47;;;;;;;;;;4997430;28;20906;-81
2022/09/27 10:12:02;;;;;;;2.03;1.93;;;;;;;;;;4996557;28;20460;-78
2022/09/27 10:14:29;;;;;;;2.57;1.67;;;;;;;;;;4996844;28;20437;-79
2022/09/27 10:16:59;;;;;;;2.80;1.30;;;;;;;;;;5000188;28;20459;-81
2022/09/27 10:19:36;;;;;;;1.43;1.33;;;;;;;;;;4999207;28;20952;-81
2022/09/27 10:22:14;;;;;;;2.03;1.20;;;;;;;;;;4999634;28;20456;-79
2022/09/27 10:25:02;;;;;;;1.47;1.37;;;;;;;;;;4995658;28;20873;-79
2022/09/27 10:27:44;;;;;;;1.30;1.30;;;;;;;;;;4989336;28;20476;-79
2022/09/27 10:30:22;;;;;;;2.10;1.90;;;;;;;;;;4978996;28;20484;-80
2022/09/27 10:32:55;;;;;;;1.33;1.20;;;;;;;;;;4995785;28;20512;-79
2022/09/27 10:35:32;;;;;;;2.40;1.50;;;;;;;;;;4995948;28;20929;-80
2022/09/27 10:38:12;;;;;;;1.90;1.37;;;;;;;;;;4995741;28;20511;-79
2022/09/27 10:40:39;;;;;;;2.20;1.67;;;;;;;;;;4990052;28;20463;-79
2022/09/27 10:43:22;;;;;;;2.00;1.47;;;;;;;;;;4994415;28;20437;-80
2022/09/27 10:45:50;;;;;;;1.53;1.47;;;;;;;;;;4994055;28;20448;-79
2022/09/27 10:48:21;;;;;;;1.57;1.47;;;;;;;;;;4986980;28;20938;-81
2022/09/27 10:50:57;;;;;;;4.17;1.17;;;;;;;;;;4996624;28;20471;-79
2022/09/27 10:53:26;;;;;;;2.10;1.40;;;;;;;;;;4996502;28;20436;-79
2022/09/27 10:55:53;;;;;;;1.80;1.33;;;;;;;;;;4997808;28;20448;-79
2022/09/27 10:58:25;;;;;;;1.43;1.33;;;;;;;;;;4997102;28;20522;-78
2022/09/27 11:00:56;;;;;;;4.30;3.10;;;;;;;;;;4995710;28;20803;-78
2022/09/27 11:03:25;;;;;;;1.73;1.57;;;;;;;;;;4995211;28;20479;-78
2022/09/27 11:05:53;;;;;;;2.53;1.77;;;;;;;;;;4996867;28;20535;-79
2022/09/27 11:08:23;;;;;;;1.40;1.20;;;;;;;;;;4996451;28;20819;-78
2022/09/27 11:11:05;;;;;;;4.23;1.70;;;;;;;;;;4995966;28;20456;-77
2022/09/27 11:13:34;;;;;;;1.53;1.40;;;;;;;;;;4995174;28;20487;-79
2022/09/27 11:16:16;;;;;;;4.30;1.50;;;;;;;;;;4997308;28;20445;-78
2022/09/27 11:18:48;;;;;;;1.93;1.77;;;;;;;;;;4993213;28;20500;-79
2022/09/27 11:21:22;;;;;;;1.47;1.37;;;;;;;;;;4998694;28;20456;-78
2022/09/27 11:23:53;;;;;;;2.50;1.63;;;;;;;;;;4998464;28;20459;-79
2022/09/27 11:26:34;;;;;;;1.37;1.30;;;;;;;;;;4998717;28;20448;-79
2022/09/27 11:29:07;;;;;;;2.27;1.37;;;;;;;;;;4997450;28;20530;-78
2022/09/27 11:31:41;;;;;;;2.00;1.10;;;;;;;;;;4998481;28;20499;-80
2022/09/27 11:34:27;;;;;;;1.03;1.00;;;;;;;;;;4993198;28;20872;-77
2022/09/27 11:37:04;;;;;;;1.27;1.13;;;;;;;;;;4993536;28;21269;-78
2022/09/27 11:39:36;;;;;;;1.10;1.00;;;;;;;;;;4992982;28;20568;-79
2022/09/27 11:42:14;;;;;;;1.30;1.20;;;;;;;;;;4990867;28;20460;-79
2022/09/27 11:44:49;;;;;;;1.40;1.30;;;;;;;;;;4993612;28;20885;-79
2022/09/27 11:47:18;;;;;;;0.80;0.80;;;;;;;;;;4994980;28;20587;-78
2022/09/27 11:50:03;;;;;;;1.00;0.90;;;;;;;;;;4995250;28;20847;-78
2022/09/27 11:52:37;;;;;;;1.03;0.80;;;;;;;;;;4987909;28;20456;-77
2022/09/27 11:55:19;;;;;;;0.90;0.90;;;;;;;;;;4998635;28;20519;-79
2022/09/27 11:57:49;;;;;;;0.90;0.90;;;;;;;;;;4992192;28;20452;-78
2022/09/27 12:00:19;;;;;;;0.80;0.80;;;;;;;;;;4993001;28;20479;-77
2022/09/27 12:02:57;;;;;;;0.90;0.90;;;;;;;;;;4992529;28;20444;-79
2022/09/27 12:05:29;;;;;;;1.70;0.70;;;;;;;;;;4993517;28;20563;-78
2022/09/27 12:08:03;;;;;;;0.70;0.70;;;;;;;;;;4990988;28;20452;-78
2022/09/27 12:10:31;;;;;;;0.60;0.60;;;;;;;;;;4992907;28;20483;-79
2022/09/27 12:13:00;;;;;;;0.70;0.70;;;;;;;;;;4990272;28;20944;-79
2022/09/27 12:15:32;;;;;;;2.13;0.80;;;;;;;;;;4992050;28;20471;-78
2022/09/27 12:18:03;;;;;;;1.70;1.70;;;;;;;;;;4991322;28;20551;-78
2022/09/27 12:20:32;;;;;;;0.90;0.80;;;;;;;;;;4991883;28;20460;-77
2022/09/27 12:23:02;;;;;;;1.53;0.70;;;;;;;;;;4991043;28;20968;-78
2022/09/27 12:25:30;;;;;;;1.30;0.80;;;;;;;;;;4991506;28;20456;-76
2022/09/27 12:28:04;;;;;;;0.87;0.83;;;;;;;;;;4991379;28;20445;-76
2022/09/27 12:30:33;;;;;;;2.00;0.80;;;;;;;;;;4991883;28;20822;-77
2022/09/27 12:33:05;;;;;;;2.33;0.70;;;;;;;;;;4991480;28;20455;-77
2022/09/27 12:35:34;;;;;;;0.67;0.67;;;;;;;;;;4991817;28;20444;-77
2022/09/27 12:38:06;;;;;;;0.90;0.70;;;;;;;;;;4992232;28;20447;-77
2022/09/27 12:40:35;;;;;;;0.57;0.57;;;;;;;;;;4993098;28;20494;-76
2022/09/27 12:43:07;;;;;;;2.27;1.40;;;;;;;;;;4992001;28;20643;-77
2022/09/27 12:45:40;;;;;;;0.83;0.80;;;;;;;;;;4991650;28;20502;-77
2022/09/27 12:48:11;;;;;;;1.23;0.60;;;;;;;;;;4991500;28;20440;-77
2022/09/27 12:50:41;;;;;;;1.30;1.20;;;;;;;;;;4991232;28;20918;-77
2022/09/27 12:53:12;;;;;;;1.00;1.00;;;;;;;;;;4991366;28;20449;-77
2022/09/27 12:55:50;;;;;;;0.73;0.73;;;;;;;;;;4992243;28;20455;-78
2022/09/27 12:58:41;;;;;;;0.80;0.77;;;;;;;;;;4991035;28;20862;-78
2022/09/27 13:01:15;;;;;;;0.90;0.90;;;;;;;;;;4977180;28;20460;-77
2022/09/27 13:03:49;;;;;;;0.90;0.90;;;;;;;;;;4992117;28;20433;-77
2022/09/27 13:06:23;;;;;;;0.87;0.87;;;;;;;;;;4990987;28;20532;-77
2022/09/27 13:09:00;;;;;;;2.73;0.90;;;;;;;;;;4995189;28;20467;-78
2022/09/27 13:11:30;;;;;;;2.50;1.00;;;;;;;;;;4994769;28;20533;-77
2022/09/27 13:13:58;;;;;;;2.30;1.23;;;;;;;;;;4994443;28;20498;-76
2022/09/27 13:16:27;;;;;;;0.80;0.80;;;;;;;;;;4995029;28;20844;-77
2022/09/27 13:18:58;;;;;;;1.30;1.30;;;;;;;;;;4994596;28;20510;-78
2022/09/27 13:21:42;;;;;;;1.07;1.00;;;;;;;;;;4995125;28;20456;-77
2022/09/27 13:24:25;;;;;;;1.13;1.13;;;;;;;;;;4984659;28;20495;-76
2022/09/27 13:26:53;;;;;;;1.50;1.40;;;;;;;;;;4994793;28;20506;-77
2022/09/27 13:29:22;;;;;;;1.00;0.90;;;;;;;;;;4994537;28;20533;-77
2022/09/27 13:32:04;;;;;;;1.20;1.10;;;;;;;;;;4994485;28;20452;-77
2022/09/27 13:34:38;;;;;;;1.20;1.10;;;;;;;;;;4996810;28;20451;-77
2022/09/27 13:37:20;;;;;;;1.67;1.40;;;;;;;;;;4998856;28;20448;-76
2022/09/27 13:39:47;;;;;;;2.33;1.43;;;;;;;;;;4998237;28;20495;-77
2022/09/27 13:42:21;;;;;;;1.50;1.40;;;;;;;;;;4994253;28;20467;-77
2022/09/27 13:44:53;;;;;;;1.13;1.10;;;;;;;;;;4993836;28;20436;-77
2022/09/27 13:47:33;;;;;;;1.00;1.00;;;;;;;;;;4994247;28;20456;-77
2022/09/27 13:50:04;;;;;;;2.30;1.00;;;;;;;;;;4994093;28;20507;-76
2022/09/27 13:52:33;;;;;;;1.30;0.90;;;;;;;;;;4993838;28;20443;-76
2022/09/27 13:55:01;;;;;;;1.50;1.40;;;;;;;;;;4993858;28;20491;-78
2022/09/27 13:57:50;;;;;;;1.57;1.10;;;;;;;;;;4993672;28;20530;-77
2022/09/27 14:00:18;;;;;;;1.33;1.20;;;;;;;;;;4993617;28;20491;-77
2022/09/27 14:02:56;;;;;;;1.63;1.40;;;;;;;;;;4993582;28;20555;-77
2022/09/27 14:05:27;;;;;;;1.90;1.40;;;;;;;;;;4998150;28;20881;-77
2022/09/27 14:07:58;;;;;;;2.00;1.80;;;;;;;;;;4998319;28;20436;-78
2022/09/27 14:10:26;;;;;;;1.83;1.50;;;;;;;;;;5002076;28;21043;-77
2022/09/27 14:12:53;;;;;;;3.33;1.80;;;;;;;;;;5001215;28;20455;-77
2022/09/27 14:15:23;;;;;;;1.97;1.50;;;;;;;;;;5010632;28;20499;-78
2022/09/27 14:17:51;;;;;;;1.83;1.30;;;;;;;;;;5014003;28;20448;-77
2022/09/27 14:20:35;;;;;;;2.03;1.60;;;;;;;;;;5015367;28;20492;-77
2022/09/27 14:23:03;;;;;;;1.00;1.00;;;;;;;;;;5016098;28;20444;-76
2022/09/27 14:25:30;;;;;;;1.57;1.47;;;;;;;;;;5016307;28;20452;-77
2022/09/27 14:27:59;;;;;;;1.43;1.33;;;;;;;;;;5011339;28;20440;-77
2022/09/27 14:30:27;;;;;;;1.00;0.90;;;;;;;;;;5016331;28;20461;-76
2022/09/27 14:32:59;;;;;;;3.17;1.20;;;;;;;;;;5013143;28;20491;-76
2022/09/27 14:38:13;;;;;;;1.27;1.10;;;;;;;;;;5016382;28;20459;-77
2022/09/27 14:40:42;;;;;;;1.53;1.43;;;;;;;;;;5014621;28;20488;-77
2022/09/27 14:43:12;;;;;;;3.80;2.47;;;;;;;;;;5003921;28;20444;-76
2022/09/27 14:45:40;;;;;;;1.60;1.50;;;;;;;;;;5015704;28;20439;-76
2022/09/27 14:48:20;;;;;;;1.10;1.10;;;;;;;;;;5017030;28;20459;-77
2022/09/27 14:50:55;;;;;;;1.20;1.20;;;;;;;;;;5013359;28;20439;-77
2022/09/27 14:53:23;;;;;;;1.40;1.30;;;;;;;;;;5012888;28;20471;-76
2022/09/27 14:55:52;;;;;;;1.00;1.00;;;;;;;;;;5010405;28;20441;-78
2022/09/27 14:58:19;;;;;;;0.90;0.90;;;;;;;;;;5014859;28;20448;-76
2022/09/27 15:00:48;;;;;;;1.37;1.37;;;;;;;;;;5014491;28;20498;-77
2022/09/27 15:03:20;;;;;;;1.60;1.50;;;;;;;;;;5017599;28;20447;-76
2022/09/27 15:05:47;;;;;;;1.50;1.33;;;;;;;;;;5017824;28;20484;-77
2022/09/27 15:08:15;;;;;;;2.00;1.43;;;;;;;;;;5006942;28;20510;-77
2022/09/27 15:10:42;;;;;;;1.20;1.20;;;;;;;;;;5000716;28;20468;-78
2022/09/27 15:13:13;;;;;;;1.43;1.33;;;;;;;;;;5000143;28;20484;-78
2022/09/27 15:15:40;;;;;;;1.20;1.20;;;;;;;;;;5000425;28;20443;-77